Time;durP1;ratioP1;P1;durP2;ratioP2;P2;SDS_P1;SDS_P2;PMS_P1;PMS_P2;Temp;Humidity;BMP_temperature;BMP_pressure;BME280_temperature;BME280_humidity;BME280_pressure;Samples;Min_cycle;Max_cycle;Signal;HPM_P1;HPM_P2
2022/01/11 00:01:48;;;;;;;68.07;32.75;;;;;;;0.28;100.00;102686.03;5071692;28;20105;-72
2022/01/11 00:04:17;;;;;;;59.00;32.25;;;;;;;0.29;100.00;102695.00;5070188;28;20528;-74
2022/01/11 00:06:49;;;;;;;62.15;31.55;;;;;;;0.24;100.00;102697.78;5069033;28;20044;-72
2022/01/11 00:11:58;;;;;;;65.32;34.00;;;;;;;0.14;100.00;102695.09;5066797;28;20420;-72
2022/01/11 00:14:25;;;;;;;58.47;32.10;;;;;;;0.18;100.00;102707.03;5069736;28;20171;-72
2022/01/11 00:16:52;;;;;;;61.05;30.58;;;;;;;0.21;100.00;102709.22;5083913;28;20429;-71
2022/01/11 00:19:19;;;;;;;64.20;32.83;;;;;;;0.21;100.00;102706.50;5069292;28;20041;-72
2022/01/11 00:21:48;;;;;;;61.17;32.50;;;;;;;0.15;100.00;102700.25;5069030;28;20052;-72
2022/01/11 00:24:29;;;;;;;65.85;33.15;;;;;;;0.17;100.00;102702.72;5064250;28;20679;-72
2022/01/11 00:27:07;;;;;;;70.78;34.97;;;;;;;0.12;100.00;102702.72;5066004;28;20132;-73
2022/01/11 00:29:37;;;;;;;62.88;32.40;;;;;;;0.10;100.00;102700.28;5067240;28;20060;-72
2022/01/11 00:32:09;;;;;;;61.58;31.58;;;;;;;0.08;100.00;102707.09;5065674;28;20156;-72
2022/01/11 00:34:49;;;;;;;59.60;28.40;;;;;;;0.06;100.00;102707.38;5070805;28;20044;-72
2022/01/11 00:37:18;;;;;;;64.43;29.42;;;;;;;0.04;100.00;102694.03;5062280;28;20055;-72
2022/01/11 00:39:50;;;;;;;67.28;30.85;;;;;;;0.03;100.00;102693.53;5073053;28;20148;-72
2022/01/11 00:42:18;;;;;;;68.07;32.20;;;;;;;0.03;100.00;102695.16;5063820;28;20131;-70
2022/01/11 00:44:45;;;;;;;59.65;31.90;;;;;;;0.02;100.00;102703.59;5067153;28;20052;-71
2022/01/11 00:47:12;;;;;;;59.88;30.02;;;;;;;0.01;100.00;102701.97;5073850;28;21502;-71
2022/01/11 00:49:40;;;;;;;58.17;30.65;;;;;;;-0.03;100.00;102696.25;5066196;28;20905;-72
2022/01/11 00:52:09;;;;;;;58.17;30.50;;;;;;;-0.06;100.00;102694.09;5064967;28;20048;-71
2022/01/11 00:54:35;;;;;;;65.13;30.38;;;;;;;-0.09;100.00;102691.91;5064285;28;20058;-71
2022/01/11 00:57:03;;;;;;;53.55;28.85;;;;;;;-0.09;100.00;102693.84;5066967;28;20131;-71
2022/01/11 00:59:29;;;;;;;54.25;28.30;;;;;;;-0.12;100.00;102695.22;5068957;28;20114;-73
2022/01/11 01:01:56;;;;;;;58.40;28.05;;;;;;;-0.14;100.00;102697.41;5067964;28;20062;-71
2022/01/11 01:04:23;;;;;;;52.45;28.95;;;;;;;-0.15;100.00;102703.09;5067583;28;20088;-72
2022/01/11 01:06:49;;;;;;;54.47;29.45;;;;;;;-0.16;100.00;102707.72;5068991;28;20036;-72
2022/01/11 01:09:16;;;;;;;54.35;30.30;;;;;;;-0.18;100.00;102701.75;5058647;28;20040;-72
2022/01/11 01:11:44;;;;;;;57.95;29.48;;;;;;;-0.18;100.00;102706.38;5067535;28;20052;-71
2022/01/11 01:14:12;;;;;;;48.67;26.88;;;;;;;-0.19;100.00;102712.94;5065491;28;20110;-71
2022/01/11 01:16:40;;;;;;;58.35;29.20;;;;;;;-0.20;100.00;102714.03;5068741;28;20057;-72
2022/01/11 01:19:06;;;;;;;53.20;29.60;;;;;;;-0.20;100.00;102722.19;5068590;28;20044;-71
2022/01/11 01:21:37;;;;;;;53.55;29.05;;;;;;;-0.22;100.00;102721.63;5082663;28;20059;-72
2022/01/11 01:24:07;;;;;;;55.08;29.25;;;;;;;-0.24;100.00;102727.34;5065513;28;20060;-70
2022/01/11 01:26:37;;;;;;;53.40;29.88;;;;;;;-0.31;100.00;102726.84;5060781;28;20127;-72
2022/01/11 01:29:04;;;;;;;54.72;29.10;;;;;;;-0.31;100.00;102729.56;5069176;28;20132;-73
2022/01/11 01:31:30;;;;;;;63.33;29.92;;;;;;;-0.31;100.00;102731.44;5068444;28;20048;-72
2022/01/11 01:33:57;;;;;;;56.58;29.67;;;;;;;-0.31;100.00;102734.16;5067601;28;20048;-72
2022/01/11 01:36:25;;;;;;;56.58;29.83;;;;;;;-0.33;100.00;102734.44;5071786;28;20415;-72
2022/01/11 01:38:51;;;;;;;58.08;30.52;;;;;;;-0.36;100.00;102732.31;5066783;28;20036;-71
2022/01/11 01:41:20;;;;;;;55.55;30.80;;;;;;;-0.37;100.00;102727.94;5079920;28;20155;-72
2022/01/11 01:43:50;;;;;;;57.55;30.45;;;;;;;-0.44;100.00;102724.69;5068570;28;20131;-70
2022/01/11 01:46:17;;;;;;;58.75;30.30;;;;;;;-0.43;100.00;102734.47;5083290;28;20074;-73
2022/01/11 01:48:45;;;;;;;56.45;30.00;;;;;;;-0.53;100.00;102723.63;5069100;28;20129;-72
2022/01/11 01:51:13;;;;;;;58.90;30.70;;;;;;;-0.53;100.00;102737.22;5070260;28;20048;-72
2022/01/11 01:53:44;;;;;;;59.90;30.92;;;;;;;-0.50;100.00;102744.03;5066363;28;20056;-71
2022/01/11 01:56:11;;;;;;;63.33;31.02;;;;;;;-0.48;100.00;102748.09;5074021;28;20048;-71
2022/01/11 01:58:38;;;;;;;59.60;31.08;;;;;;;-0.47;100.00;102744.28;5065883;28;20079;-72
2022/01/11 02:01:05;;;;;;;62.00;31.92;;;;;;;-0.49;100.00;102748.34;5067241;28;20052;-71
2022/01/11 02:03:38;;;;;;;57.33;31.20;;;;;;;-0.54;100.00;102749.19;5065695;28;20053;-71
2022/01/11 02:06:07;;;;;;;56.33;29.95;;;;;;;-0.62;100.00;102754.34;5068007;28;20955;-73
2022/01/11 02:08:35;;;;;;;56.58;30.00;;;;;;;-0.68;100.00;102750.81;5066985;28;20474;-71
2022/01/11 02:11:01;;;;;;;57.33;30.20;;;;;;;-0.67;100.00;102757.09;5067119;28;20099;-72
2022/01/11 02:13:29;;;;;;;58.25;31.05;;;;;;;-0.69;100.00;102751.94;5072821;28;20048;-72
2022/01/11 02:15:57;;;;;;;57.50;30.48;;;;;;;-0.64;100.00;102760.06;5065386;28;20135;-71
2022/01/11 02:18:26;;;;;;;64.95;31.23;;;;;;;-0.64;100.00;102762.78;5066495;28;20135;-72
2022/01/11 02:20:58;;;;;;;65.05;31.67;;;;;;;-0.70;100.00;102758.47;5067117;28;20045;-71
2022/01/11 02:23:27;;;;;;;54.58;31.05;;;;;;;-0.67;100.00;102759.81;5064506;28;20169;-72
2022/01/11 02:25:54;;;;;;;61.60;32.00;;;;;;;-0.64;100.00;102768.22;5067505;28;20058;-73
2022/01/11 02:28:23;;;;;;;58.17;31.48;;;;;;;-0.68;100.00;102758.16;5079202;28;20509;-71
2022/01/11 02:30:52;;;;;;;59.78;31.73;;;;;;;-0.63;100.00;102766.31;5065400;28;20464;-72
2022/01/11 02:33:41;;;;;;;66.85;33.15;;;;;;;-0.67;100.00;102760.59;5065411;28;20450;-71
2022/01/11 02:36:18;;;;;;;58.70;31.40;;;;;;;-0.65;100.00;102782.09;5061080;28;20057;-72
2022/01/11 02:38:46;;;;;;;59.58;30.52;;;;;;;-0.69;100.00;102772.84;5066816;28;20402;-70
2022/01/11 02:41:13;;;;;;;61.33;30.85;;;;;;;-0.71;100.00;102781.28;5060820;28;20080;-72
2022/01/11 02:43:41;;;;;;;59.05;29.73;;;;;;;-0.73;100.00;102779.91;5067872;28;20054;-71
2022/01/11 02:46:08;;;;;;;66.57;30.40;;;;;;;-0.72;100.00;102778.81;5067401;28;20057;-72
2022/01/11 02:48:35;;;;;;;56.53;29.65;;;;;;;-0.77;100.00;102770.69;5066248;28;20048;-71
2022/01/11 02:51:03;;;;;;;55.88;30.80;;;;;;;-0.76;100.00;102780.47;5060938;28;20123;-70
2022/01/11 02:53:30;;;;;;;55.55;29.83;;;;;;;-0.79;100.00;102772.84;5064863;28;20076;-72
2022/01/11 02:55:57;;;;;;;56.53;30.33;;;;;;;-0.77;100.00;102782.34;5066214;28;20048;-71
2022/01/11 02:58:23;;;;;;;59.28;30.70;;;;;;;-0.78;100.00;102783.44;5066348;28;20091;-71
2022/01/11 03:00:50;;;;;;;55.95;30.75;;;;;;;-0.79;100.00;102772.84;5066261;28;20044;-70
2022/01/11 03:03:22;;;;;;;59.60;29.38;;;;;;;-0.78;100.00;102779.91;5064479;28;20048;-73
2022/01/11 03:06:02;;;;;;;58.33;29.17;;;;;;;-0.82;100.00;102782.38;5066346;28;20136;-72
2022/01/11 03:08:42;;;;;;;53.30;28.60;;;;;;;-0.82;100.00;102779.66;5067091;28;20816;-72
2022/01/11 03:11:14;;;;;;;60.28;29.48;;;;;;;-0.81;100.00;102780.47;5065688;28;20067;-73
2022/01/11 03:13:43;;;;;;;60.65;30.70;;;;;;;-0.83;100.00;102780.75;5066555;28;20055;-71
2022/01/11 03:16:12;;;;;;;56.88;29.08;;;;;;;-0.87;100.00;102771.47;5065080;28;20076;-73
2022/01/11 03:18:39;;;;;;;61.05;30.17;;;;;;;-0.85;100.00;102782.91;5065058;28;20064;-72
2022/01/11 03:21:06;;;;;;;56.10;30.58;;;;;;;-0.84;100.00;102781.03;5067288;28;20141;-72
2022/01/11 03:23:32;;;;;;;65.10;31.05;;;;;;;-0.87;100.00;102787.00;5050468;28;20521;-72
2022/01/11 03:26:02;;;;;;;60.22;30.27;;;;;;;-0.88;100.00;102799.75;5063693;28;20496;-72
2022/01/11 03:28:30;;;;;;;58.50;30.42;;;;;;;-0.92;100.00;102793.22;5066349;28;20086;-72
2022/01/11 03:30:57;;;;;;;58.28;29.17;;;;;;;-0.96;100.00;102791.31;5066683;28;20157;-72
2022/01/11 03:33:24;;;;;;;61.00;29.55;;;;;;;-1.00;100.00;102784.81;5056862;28;20125;-72
2022/01/11 03:35:51;;;;;;;53.47;28.90;;;;;;;-1.02;100.00;102797.81;5068856;28;20120;-73
2022/01/11 03:38:18;;;;;;;55.88;29.95;;;;;;;-1.08;100.00;102791.56;5080469;28;20128;-72
2022/01/11 03:40:45;;;;;;;51.28;26.55;;;;;;;-1.06;100.00;102794.03;5067299;28;20048;-71
2022/01/11 03:43:12;;;;;;;64.32;29.05;;;;;;;-1.06;100.00;102797.56;5065272;28;20119;-72
2022/01/11 03:45:38;;;;;;;55.40;28.50;;;;;;;-1.13;100.00;102790.75;5066417;28;20079;-72
2022/01/11 03:48:07;;;;;;;57.55;28.98;;;;;;;-1.05;100.00;102804.63;5066846;28;20076;-72
2022/01/11 03:50:34;;;;;;;52.92;28.63;;;;;;;-1.02;100.00;102806.81;5065775;28;20091;-73
2022/01/11 03:53:14;;;;;;;55.83;28.08;;;;;;;-1.00;100.00;102810.09;5065768;28;20440;-76
2022/01/11 03:56:09;;;;;;;;;;;;;;;;;;;;;
2022/01/11 03:58:15;;;;;;;51.28;26.40;;;;;;;-1.11;100.00;102808.41;5066504;28;20211;-73
2022/01/11 04:00:42;;;;;;;58.53;28.67;;;;;;;-1.14;100.00;102806.25;5066558;28;20048;-72
2022/01/11 04:03:10;;;;;;;52.95;26.55;;;;;;;-1.16;100.00;102816.56;5065206;28;20049;-72
2022/01/11 04:05:37;;;;;;;56.78;29.02;;;;;;;-1.19;100.00;102810.84;5064630;28;20131;-72
2022/01/11 04:08:04;;;;;;;67.82;30.00;;;;;;;-1.21;100.00;102813.81;5066577;28;20110;-72
2022/01/11 04:10:31;;;;;;;59.28;29.50;;;;;;;-1.24;100.00;102808.97;5055182;28;20044;-72
2022/01/11 04:12:57;;;;;;;79.10;30.77;;;;;;;-1.22;100.00;102814.13;5084718;28;20049;-71
2022/01/11 04:15:24;;;;;;;64.85;29.83;;;;;;;-1.24;100.00;102816.28;5065414;28;20735;-72
2022/01/11 04:17:50;;;;;;;58.33;29.73;;;;;;;-1.28;100.00;102810.53;5060935;28;20041;-72
2022/01/11 04:20:19;;;;;;;64.38;30.13;;;;;;;-1.31;100.00;102819.25;5066493;28;20067;-72
2022/01/11 04:22:47;;;;;;;60.35;30.17;;;;;;;-1.39;100.00;102817.03;5065762;28;20084;-70
2022/01/11 04:25:13;;;;;;;49.67;28.77;;;;;;;-1.39;100.00;102810.81;5068029;28;20532;-72
2022/01/11 04:27:40;;;;;;;56.72;30.73;;;;;;;-1.40;100.00;102803.72;5084396;28;20137;-72
2022/01/11 04:30:07;;;;;;;59.83;31.40;;;;;;;-1.42;100.00;102814.84;5070294;28;20059;-72
2022/01/11 04:32:33;;;;;;;60.90;27.80;;;;;;;-1.48;100.00;102820.56;5067716;28;20053;-73
2022/01/11 04:35:00;;;;;;;50.15;27.98;;;;;;;-1.57;100.00;102817.53;5074331;28;20052;-72
2022/01/11 04:37:27;;;;;;;53.75;27.80;;;;;;;-1.59;100.00;102822.41;5066985;28;20135;-72
2022/01/11 04:39:53;;;;;;;59.20;30.60;;;;;;;-1.59;100.00;102821.59;5064676;28;20098;-70
2022/01/11 04:42:20;;;;;;;66.93;32.42;;;;;;;-1.57;100.00;102825.69;5065921;28;20589;-71
2022/01/11 04:44:47;;;;;;;71.43;31.77;;;;;;;-1.59;100.00;102821.59;5068018;28;20049;-72
2022/01/11 04:47:13;;;;;;;63.10;30.35;;;;;;;-1.58;100.00;102824.06;5066102;28;20051;-72
2022/01/11 04:49:40;;;;;;;61.72;29.92;;;;;;;-1.58;100.00;102821.34;5069351;28;20138;-73
2022/01/11 04:52:06;;;;;;;58.60;31.25;;;;;;;-1.58;100.00;102829.47;5068724;28;20052;-71
2022/01/11 04:54:33;;;;;;;65.97;32.80;;;;;;;-1.58;100.00;102824.06;5068063;28;20227;-71
2022/01/11 04:56:59;;;;;;;60.47;31.85;;;;;;;-1.60;100.00;102833.53;5068061;28;20481;-71
2022/01/11 04:59:27;;;;;;;66.03;34.30;;;;;;;-1.59;100.00;102838.69;5064291;28;20428;-71
2022/01/11 05:01:53;;;;;;;61.13;32.45;;;;;;;-1.61;100.00;102834.63;5068101;28;20056;-70
2022/01/11 05:04:20;;;;;;;62.70;33.40;;;;;;;-1.58;100.00;102832.19;5069804;28;20532;-71
2022/01/11 05:06:47;;;;;;;68.28;34.35;;;;;;;-1.50;100.00;102841.72;5080984;28;20155;-72
2022/01/11 05:09:13;;;;;;;63.40;31.38;;;;;;;-1.50;100.00;102841.72;5067760;28;20076;-70
2022/01/11 05:11:40;;;;;;;62.70;30.42;;;;;;;-1.47;100.00;102839.28;5066877;28;20076;-72
2022/01/11 05:14:06;;;;;;;58.85;29.63;;;;;;;-1.44;100.00;102846.91;5069391;28;20096;-71
2022/01/11 05:16:33;;;;;;;61.80;32.03;;;;;;;-1.40;100.00;102855.31;5068502;28;20144;-71
2022/01/11 05:19:00;;;;;;;58.88;29.52;;;;;;;-1.45;100.00;102844.47;5067141;28;20055;-70
2022/01/11 05:21:26;;;;;;;61.88;29.98;;;;;;;-1.51;100.00;102849.06;5068411;28;20051;-73
2022/01/11 05:23:53;;;;;;;58.53;27.85;;;;;;;-1.50;100.00;102847.13;5062912;28;20135;-71
2022/01/11 05:26:19;;;;;;;57.38;28.23;;;;;;;-1.49;100.00;102841.44;5064117;28;20052;-71
2022/01/11 05:28:46;;;;;;;62.38;30.05;;;;;;;-1.47;100.00;102858.31;5068588;28;20109;-71
2022/01/11 05:31:12;;;;;;;53.75;24.83;;;;;;;-1.48;100.00;102856.66;5067950;28;20059;-73
2022/01/11 05:33:39;;;;;;;62.13;26.52;;;;;;;-1.44;100.00;102843.38;5062064;28;20080;-71
2022/01/11 05:36:06;;;;;;;63.72;25.90;;;;;;;-1.38;100.00;102851.25;5068597;28;20052;-72
2022/01/11 05:38:32;;;;;;;61.25;24.75;;;;;;;-1.29;100.00;102854.28;5067399;28;20052;-71
2022/01/11 05:40:59;;;;;;;61.25;23.20;;;;;;;-1.29;100.00;102860.53;5066173;28;20048;-74
2022/01/11 05:43:25;;;;;;;73.10;25.00;;;;;;;-1.31;100.00;102851.84;5067779;28;20110;-71
2022/01/11 05:45:52;;;;;;;62.90;24.75;;;;;;;-1.34;100.00;102841.53;5068859;28;20048;-71
2022/01/11 05:48:20;;;;;;;65.30;20.67;;;;;;;-1.28;100.00;102855.94;5067713;28;20060;-73
2022/01/11 05:50:47;;;;;;;84.38;25.33;;;;;;;-1.20;100.00;102864.38;5069164;28;20075;-70
2022/01/11 05:53:13;;;;;;;69.65;23.25;;;;;;;-1.14;100.00;102865.19;5068244;28;20051;-73
2022/01/11 05:55:40;;;;;;;101.22;26.23;;;;;;;-1.14;100.00;102870.63;5065286;28;20143;-72
2022/01/11 05:58:11;;;;;;;93.93;24.50;;;;;;;-1.11;100.00;102872.81;5068176;28;20051;-71
2022/01/11 06:00:38;;;;;;;86.20;23.65;;;;;;;-1.30;100.00;102841.78;5067500;28;20052;-72
2022/01/11 06:03:04;;;;;;;105.45;24.13;;;;;;;-1.11;100.00;102872.81;5067056;28;20131;-71
2022/01/11 06:05:35;;;;;;;122.05;23.85;;;;;;;-1.10;100.00;102872.56;5068211;28;20048;-71
2022/01/11 06:08:02;;;;;;;149.73;24.95;;;;;;;-1.09;100.00;102876.06;5067071;28;20662;-71
2022/01/11 06:10:28;;;;;;;104.90;23.50;;;;;;;-1.05;100.00;102872.56;5059037;28;20773;-70
2022/01/11 06:12:55;;;;;;;90.15;19.35;;;;;;;-1.06;100.00;102876.38;5061831;28;20056;-71
2022/01/11 06:15:22;;;;;;;99.80;22.15;;;;;;;-1.09;100.00;102874.19;5065684;28;20084;-70
2022/01/11 06:17:50;;;;;;;108.03;25.05;;;;;;;-1.03;100.00;102878.56;5067868;28;20076;-71
2022/01/11 06:20:16;;;;;;;128.60;26.00;;;;;;;-1.05;100.00;102875.28;5067526;28;20135;-73
2022/01/11 06:22:43;;;;;;;145.25;25.65;;;;;;;-1.08;100.00;102881.25;5062578;28;20052;-72
2022/01/11 06:25:10;;;;;;;163.93;25.45;;;;;;;-1.08;100.00;102873.09;5067483;28;20497;-71
2022/01/11 06:27:40;;;;;;;187.10;28.63;;;;;;;-1.07;100.00;102880.19;5064953;28;20139;-72
2022/01/11 06:30:12;;;;;;;152.93;23.90;;;;;;;-1.11;100.00;102879.06;5064686;28;20128;-72
2022/01/11 06:32:39;;;;;;;164.55;26.52;;;;;;;-1.13;100.00;102886.66;5064344;28;20135;-73
2022/01/11 06:35:06;;;;;;;172.95;26.80;;;;;;;-1.17;100.00;102891.00;5071929;28;20097;-71
2022/01/11 06:37:33;;;;;;;94.68;21.20;;;;;;;-1.20;100.00;102888.00;5066532;28;20054;-71
2022/01/11 06:40:01;;;;;;;85.10;20.95;;;;;;;-1.24;100.00;102893.16;5067260;28;20055;-73
2022/01/11 06:42:27;;;;;;;94.55;22.63;;;;;;;-1.22;100.00;102895.63;5065353;28;20072;-72
2022/01/11 06:44:54;;;;;;;116.05;22.17;;;;;;;-1.24;100.00;102898.59;5065446;28;20049;-72
2022/01/11 06:47:20;;;;;;;108.90;21.13;;;;;;;-1.31;100.00;102906.16;5063755;28;20489;-71
2022/01/11 06:49:47;;;;;;;88.05;21.58;;;;;;;-1.29;100.00;102897.72;5057657;28;20056;-71
2022/01/11 06:52:14;;;;;;;125.07;23.42;;;;;;;-1.28;100.00;102900.19;5080756;28;20121;-73
2022/01/11 06:54:41;;;;;;;120.30;25.02;;;;;;;-1.27;100.00;102899.13;5066697;28;20501;-71
2022/01/11 06:57:09;;;;;;;103.80;23.80;;;;;;;-1.26;100.00;102905.34;5063347;28;20114;-72
2022/01/11 06:59:37;;;;;;;109.25;19.60;;;;;;;-1.29;100.00;102903.16;5066193;28;20143;-73
2022/01/11 07:02:05;;;;;;;91.55;18.20;;;;;;;-1.34;100.00;102906.69;5067225;28;20152;-72
2022/01/11 07:04:32;;;;;;;74.57;17.02;;;;;;;-1.38;100.00;102908.28;5067107;28;20051;-72
2022/01/11 07:06:59;;;;;;;86.63;21.92;;;;;;;-1.33;100.00;102911.03;5067568;28;20483;-72
2022/01/11 07:09:25;;;;;;;99.95;20.98;;;;;;;-1.33;100.00;102900.19;5067089;28;20061;-72
2022/01/11 07:11:52;;;;;;;75.93;22.25;;;;;;;-1.34;100.00;102916.72;5065674;28;20496;-71
2022/01/11 07:14:19;;;;;;;66.32;20.20;;;;;;;-1.33;100.00;102913.75;5067495;28;20202;-73
2022/01/11 07:16:48;;;;;;;93.38;19.05;;;;;;;-1.34;100.00;102912.13;5067996;28;20072;-72
2022/01/11 07:19:18;;;;;;;115.72;22.23;;;;;;;-1.33;100.00;102924.63;5065236;28;20143;-71
2022/01/11 07:21:46;;;;;;;169.25;23.50;;;;;;;-1.34;100.00;102923.00;5065482;28;20045;-72
2022/01/11 07:24:15;;;;;;;73.72;19.15;;;;;;;-1.34;100.00;102933.84;5064635;28;20048;-73
2022/01/11 07:26:42;;;;;;;102.18;20.33;;;;;;;-1.32;100.00;102930.88;5066560;28;20087;-72
2022/01/11 07:29:09;;;;;;;161.88;24.23;;;;;;;-1.32;100.00;102936.31;5066780;28;20076;-73
2022/01/11 07:31:38;;;;;;;131.38;20.85;;;;;;;-1.33;100.00;102934.66;5080880;28;20036;-71
2022/01/11 07:34:06;;;;;;;111.57;20.52;;;;;;;-1.36;100.00;102933.28;5066838;28;20113;-74
2022/01/11 07:36:33;;;;;;;80.53;20.48;;;;;;;-1.33;100.00;102940.91;5079791;28;20183;-71
2022/01/11 07:39:00;;;;;;;88.13;24.30;;;;;;;-1.31;100.00;102955.06;5065151;28;20054;-72
2022/01/11 07:41:26;;;;;;;128.35;23.63;;;;;;;-1.29;100.00;102955.59;5063287;28;20044;-71
2022/01/11 07:43:53;;;;;;;83.75;20.80;;;;;;;-1.36;100.00;102952.31;5069329;28;20060;-72
2022/01/11 07:46:20;;;;;;;89.88;21.15;;;;;;;-1.44;100.00;102952.81;5069322;28;20055;-72
2022/01/11 07:48:46;;;;;;;73.35;19.13;;;;;;;-1.52;100.00;102955.22;5070492;28;20044;-73
2022/01/11 07:51:13;;;;;;;119.57;21.92;;;;;;;-1.51;100.00;102957.66;5069655;28;20423;-72
2022/01/11 07:53:40;;;;;;;101.50;20.60;;;;;;;-1.47;100.00;102961.47;5067717;28;20048;-72
2022/01/11 07:56:06;;;;;;;122.82;22.92;;;;;;;-1.55;100.00;102967.38;5070136;28;20134;-72
2022/01/11 07:58:34;;;;;;;130.52;24.90;;;;;;;-1.58;100.00;102959.78;5069326;28;20533;-75
2022/01/11 08:01:00;;;;;;;121.13;24.75;;;;;;;-1.54;100.00;102965.50;5070815;28;20052;-68
2022/01/11 08:03:27;;;;;;;67.22;20.38;;;;;;;-1.53;100.00;102957.09;5073200;28;20059;-74
2022/01/11 08:05:54;;;;;;;80.13;20.60;;;;;;;-1.54;100.00;102963.63;5070850;28;20075;-74
2022/01/11 08:08:20;;;;;;;103.63;21.05;;;;;;;-1.55;100.00;102966.59;5069723;28;20059;-74
2022/01/11 08:10:47;;;;;;;111.82;22.38;;;;;;;-1.52;100.00;102972.28;5063867;28;20064;-73
2022/01/11 08:13:15;;;;;;;110.40;22.33;;;;;;;-1.45;100.00;102963.94;5067606;28;20497;-73
2022/01/11 08:15:44;;;;;;;105.82;26.95;;;;;;;-1.46;100.00;102968.53;5067052;28;20048;-73
2022/01/11 08:18:11;;;;;;;141.35;26.95;;;;;;;-1.46;100.00;102971.25;5069377;28;20084;-73
2022/01/11 08:20:37;;;;;;;134.15;25.92;;;;;;;-1.45;100.00;102966.66;5069573;28;20342;-76
2022/01/11 08:23:04;;;;;;;155.73;29.55;;;;;;;-1.40;100.00;102972.09;5070671;28;20048;-73
2022/01/11 08:25:30;;;;;;;154.18;34.38;;;;;;;-1.42;100.00;102972.34;5070788;28;20555;-73
2022/01/11 08:27:59;;;;;;;150.48;35.25;;;;;;;-1.45;100.00;102981.03;5070160;28;20276;-74
2022/01/11 08:30:26;;;;;;;162.88;30.33;;;;;;;-1.44;100.00;102982.69;5069302;28;20490;-75
2022/01/11 08:32:52;;;;;;;120.05;27.85;;;;;;;-1.47;100.00;102980.50;5069696;28;20062;-72
2022/01/11 08:35:19;;;;;;;113.20;34.97;;;;;;;-1.51;100.00;102995.69;5072383;28;20135;-74
2022/01/11 08:37:46;;;;;;;82.22;26.38;;;;;;;-1.50;100.00;102991.88;5068947;28;20049;-74
2022/01/11 08:40:13;;;;;;;79.78;25.77;;;;;;;-1.43;100.00;102999.78;5070241;28;20480;-73
2022/01/11 08:42:39;;;;;;;57.35;20.63;;;;;;;-1.43;100.00;102997.06;5066443;28;20044;-74
2022/01/11 08:45:07;;;;;;;53.88;20.40;;;;;;;-1.39;100.00;103000.91;5068629;28;20052;-73
2022/01/11 08:47:35;;;;;;;44.30;19.52;;;;;;;-1.30;100.00;103011.00;5069135;28;20086;-77
2022/01/11 08:50:04;;;;;;;50.50;19.65;;;;;;;-1.26;100.00;103003.97;5072720;28;20556;-74
2022/01/11 08:52:31;;;;;;;57.13;21.40;;;;;;;-1.23;100.00;103000.72;5061268;28;20048;-70
2022/01/11 08:54:58;;;;;;;46.83;18.30;;;;;;;-1.13;100.00;103002.66;5065843;28;20080;-74
2022/01/11 08:57:24;;;;;;;44.95;17.02;;;;;;;-1.14;100.00;103006.47;5068796;28;20098;-76
2022/01/11 08:59:51;;;;;;;41.42;15.90;;;;;;;-1.19;100.00;103006.44;5072170;28;20072;-73
2022/01/11 09:02:20;;;;;;;49.03;19.63;;;;;;;-1.14;100.00;103003.75;5076963;28;20054;-73
2022/01/11 09:04:48;;;;;;;48.00;18.20;;;;;;;-1.10;100.00;103013.84;5069171;28;20082;-74
2022/01/11 09:07:15;;;;;;;51.13;20.05;;;;;;;-1.07;100.00;102998.91;5071253;28;20525;-75
2022/01/11 09:09:41;;;;;;;50.33;19.42;;;;;;;-1.12;100.00;103002.41;5066287;28;20057;-74
2022/01/11 09:12:10;;;;;;;46.95;18.52;;;;;;;-1.13;100.00;103003.50;5068385;28;20079;-74
2022/01/11 09:14:36;;;;;;;48.63;18.38;;;;;;;-1.09;100.00;103006.50;5070922;28;20048;-73
2022/01/11 09:17:03;;;;;;;53.63;20.80;;;;;;;-1.03;100.00;103005.44;5068495;28;20072;-76
2022/01/11 09:19:30;;;;;;;55.85;22.42;;;;;;;-0.95;100.00;103008.47;5066934;28;20076;-74
2022/01/11 09:21:58;;;;;;;55.92;22.60;;;;;;;-0.85;100.00;103018.56;5065073;28;20044;-74
2022/01/11 09:24:29;;;;;;;55.92;20.55;;;;;;;-0.80;100.00;103015.88;5070390;28;20083;-75
2022/01/11 09:26:58;;;;;;;54.35;21.02;;;;;;;-0.75;100.00;103015.88;5069355;28;20159;-77
2022/01/11 09:29:26;;;;;;;55.17;22.63;;;;;;;-0.64;100.00;103020.28;5069183;28;20084;-74
2022/01/11 09:31:56;;;;;;;59.53;24.40;;;;;;;-0.52;100.00;103013.53;5069375;28;20048;-75
2022/01/11 09:34:23;;;;;;;59.25;26.05;;;;;;;-0.36;100.00;103017.94;5068478;28;20075;-74
2022/01/11 09:36:51;;;;;;;54.80;21.55;;;;;;;-0.27;100.00;103020.94;5072191;28;20071;-76
2022/01/11 09:39:19;;;;;;;58.80;24.02;;;;;;;-0.11;100.00;103015.22;5067079;28;20561;-76
2022/01/11 09:41:45;;;;;;;50.97;20.98;;;;;;;-0.06;100.00;103012.50;5066750;28;20044;-75
2022/01/11 09:44:12;;;;;;;48.97;20.55;;;;;;;0.04;100.00;103012.50;5068770;28;20056;-76
2022/01/11 09:46:39;;;;;;;59.85;21.58;;;;;;;0.13;100.00;103012.78;5065761;28;20091;-77
2022/01/11 09:49:06;;;;;;;55.47;20.58;;;;;;;0.28;100.00;103017.41;5065826;28;20107;-76
2022/01/11 09:51:34;;;;;;;51.50;20.15;;;;;;;0.32;100.00;103018.50;5067768;28;20091;-77
2022/01/11 09:54:01;;;;;;;58.65;24.05;;;;;;;0.48;100.00;103011.97;5058348;28;20044;-75
2022/01/11 09:56:27;;;;;;;61.75;23.77;;;;;;;0.69;100.00;103011.66;5066649;28;20432;-76
2022/01/11 09:58:55;;;;;;;58.78;22.52;;;;;;;0.75;100.00;103018.72;5069777;28;20568;-76
2022/01/11 10:01:21;;;;;;;52.47;20.75;;;;;;;0.82;100.00;103016.53;5069703;28;20075;-76
2022/01/11 10:04:06;;;;;;;56.55;21.05;;;;;;;0.99;100.00;103013.47;5068601;28;20123;-75
2022/01/11 10:06:36;;;;;;;53.58;22.83;;;;;;;1.14;100.00;103016.13;5069564;28;20532;-79
2022/01/11 10:09:10;;;;;;;58.40;22.30;;;;;;;1.30;100.00;103018.53;5067790;28;20123;-75
2022/01/11 10:11:42;;;;;;;52.38;20.13;;;;;;;1.53;100.00;103014.31;5067771;28;20052;-75
2022/01/11 10:14:32;;;;;;;55.15;19.77;;;;;;;1.72;100.00;103009.84;5069880;28;20118;-76
2022/01/11 10:17:08;;;;;;;55.90;21.98;;;;;;;1.89;100.00;103018.47;5063177;28;20048;-76
2022/01/11 10:19:38;;;;;;;45.80;18.83;;;;;;;2.00;100.00;103015.34;5068495;28;20080;-75
2022/01/11 10:22:08;;;;;;;49.13;18.58;;;;;;;2.12;100.00;103012.25;5075996;28;20044;-76
2022/01/11 10:24:42;;;;;;;60.13;22.05;;;;;;;2.17;100.00;102995.84;5076635;28;20086;-75
2022/01/11 10:27:20;;;;;;;52.90;20.90;;;;;;;2.44;100.00;103012.56;5070266;28;20139;-76
2022/01/11 10:29:50;;;;;;;55.67;20.70;;;;;;;2.60;100.00;103022.25;5062655;28;20519;-74
2022/01/11 10:32:27;;;;;;;54.95;21.17;;;;;;;2.80;100.00;103016.53;5069657;28;20131;-75
2022/01/11 10:34:58;;;;;;;48.25;19.45;;;;;;;3.05;100.00;103015.44;5071542;28;20098;-78
2022/01/11 10:37:41;;;;;;;45.10;18.92;;;;;;;3.13;100.00;103023.81;5071502;28;20084;-75
2022/01/11 10:40:34;;;;;;;52.28;20.13;;;;;;;3.30;100.00;103017.91;5062726;28;20169;-72
2022/01/11 10:43:11;;;;;;;50.03;19.20;;;;;;;3.45;100.00;103015.78;5059213;28;20040;-76
2022/01/11 10:45:43;;;;;;;50.75;20.17;;;;;;;3.68;100.00;103020.34;5061695;28;20051;-75
2022/01/11 10:48:13;;;;;;;58.00;19.77;;;;;;;3.85;100.00;103026.13;5067568;28;20059;-76
2022/01/11 10:50:42;;;;;;;49.83;20.50;;;;;;;3.90;100.00;103019.75;5068755;28;20139;-75
2022/01/11 10:53:25;;;;;;;48.58;18.45;;;;;;;3.95;100.00;103025.97;5059792;28;20508;-79
2022/01/11 10:55:54;;;;;;;46.28;20.25;;;;;;;4.24;100.00;103018.41;5064104;28;20098;-73
2022/01/11 10:58:42;;;;;;;43.63;16.45;;;;;;;4.61;100.00;103026.53;5068940;28;20052;-77
2022/01/11 11:01:11;;;;;;;47.53;18.40;;;;;;;4.99;100.00;103025.25;5068969;28;20048;-78
2022/01/11 11:03:39;;;;;;;48.15;19.90;;;;;;;7.24;100.00;103032.72;5062688;28;20470;-74
2022/01/11 11:06:10;;;;;;;46.85;18.88;;;;;;;10.63;99.09;103038.50;5057928;28;20079;-75
2022/01/11 11:08:44;;;;;;;47.72;21.42;;;;;;;12.92;83.45;103039.69;5055356;28;20117;-75
2022/01/11 11:11:20;;;;;;;45.22;19.42;;;;;;;15.04;71.25;103033.69;5068891;28;20048;-79
2022/01/11 11:13:49;;;;;;;38.22;17.52;;;;;;;16.69;57.89;103036.03;5070954;28;20053;-75